sensor_id;sensor_type;location;lat;lon;timestamp;P1;durP1;ratioP1;P2;durP2;ratioP2
57307;SDS011;43152;50.968;18.214;2023-08-06T00:09:07;5.40;;;1.90;;
57307;SDS011;43152;50.968;18.214;2023-08-06T00:18:50;6.00;;;2.50;;
57307;SDS011;43152;50.968;18.214;2023-08-06T00:28:32;6.50;;;3.40;;
57307;SDS011;43152;50.968;18.214;2023-08-06T00:38:14;4.80;;;2.40;;
57307;SDS011;43152;50.968;18.214;2023-08-06T00:47:59;4.20;;;2.10;;
57307;SDS011;43152;50.968;18.214;2023-08-06T00:57:42;8.20;;;2.60;;
57307;SDS011;43152;50.968;18.214;2023-08-06T01:07:37;8.60;;;3.00;;
57307;SDS011;43152;50.968;18.214;2023-08-06T01:17:57;7.00;;;3.10;;
57307;SDS011;43152;50.968;18.214;2023-08-06T01:27:50;8.10;;;5.10;;
57307;SDS011;43152;50.968;18.214;2023-08-06T01:37:41;11.20;;;5.60;;
57307;SDS011;43152;50.968;18.214;2023-08-06T01:47:29;18.30;;;6.60;;
57307;SDS011;43152;50.968;18.214;2023-08-06T01:57:12;11.00;;;5.70;;
57307;SDS011;43152;50.968;18.214;2023-08-06T02:06:55;13.40;;;6.60;;
57307;SDS011;43152;50.968;18.214;2023-08-06T02:16:39;13.20;;;6.70;;
57307;SDS011;43152;50.968;18.214;2023-08-06T02:26:21;13.20;;;6.60;;
57307;SDS011;43152;50.968;18.214;2023-08-06T02:36:04;9.40;;;5.70;;
57307;SDS011;43152;50.968;18.214;2023-08-06T02:45:56;21.30;;;6.90;;
57307;SDS011;43152;50.968;18.214;2023-08-06T02:57:45;13.40;;;9.00;;
57307;SDS011;43152;50.968;18.214;2023-08-06T03:07:30;11.50;;;5.60;;
57307;SDS011;43152;50.968;18.214;2023-08-06T03:17:12;13.80;;;7.70;;
57307;SDS011;43152;50.968;18.214;2023-08-06T03:26:55;9.60;;;5.50;;
57307;SDS011;43152;50.968;18.214;2023-08-06T03:36:39;12.60;;;6.10;;
57307;SDS011;43152;50.968;18.214;2023-08-06T03:46:21;10.40;;;3.70;;
57307;SDS011;43152;50.968;18.214;2023-08-06T03:56:04;10.50;;;5.50;;
57307;SDS011;43152;50.968;18.214;2023-08-06T04:05:54;10.00;;;5.30;;
57307;SDS011;43152;50.968;18.214;2023-08-06T04:15:40;10.70;;;6.40;;
57307;SDS011;43152;50.968;18.214;2023-08-06T04:25:23;8.60;;;4.10;;
57307;SDS011;43152;50.968;18.214;2023-08-06T04:35:07;9.40;;;4.80;;
57307;SDS011;43152;50.968;18.214;2023-08-06T04:44:51;7.00;;;3.50;;
57307;SDS011;43152;50.968;18.214;2023-08-06T04:54:34;12.00;;;7.00;;
57307;SDS011;43152;50.968;18.214;2023-08-06T05:04:18;11.20;;;6.40;;
57307;SDS011;43152;50.968;18.214;2023-08-06T05:14:01;8.40;;;4.00;;
57307;SDS011;43152;50.968;18.214;2023-08-06T05:23:44;7.90;;;4.60;;
57307;SDS011;43152;50.968;18.214;2023-08-06T05:33:29;6.20;;;3.30;;
57307;SDS011;43152;50.968;18.214;2023-08-06T05:43:13;8.70;;;4.30;;
57307;SDS011;43152;50.968;18.214;2023-08-06T06:03:15;5.30;;;2.60;;
57307;SDS011;43152;50.968;18.214;2023-08-06T06:12:59;5.00;;;2.80;;
57307;SDS011;43152;50.968;18.214;2023-08-06T06:22:42;9.00;;;3.40;;
57307;SDS011;43152;50.968;18.214;2023-08-06T06:48:49;2.00;;;0.60;;
57307;SDS011;43152;50.968;18.214;2023-08-06T06:58:32;0.30;;;0.20;;
57307;SDS011;43152;50.968;18.214;2023-08-06T07:08:16;0.50;;;0.10;;
57307;SDS011;43152;50.968;18.214;2023-08-06T07:18:02;2.20;;;0.00;;
57307;SDS011;43152;50.968;18.214;2023-08-06T07:27:50;0.10;;;0.00;;
57307;SDS011;43152;50.968;18.214;2023-08-06T07:37:40;1.00;;;0.20;;
57307;SDS011;43152;50.968;18.214;2023-08-06T07:47:24;0.50;;;0.00;;
57307;SDS011;43152;50.968;18.214;2023-08-06T07:57:09;2.10;;;0.20;;
57307;SDS011;43152;50.968;18.214;2023-08-06T08:06:51;1.00;;;0.40;;
57307;SDS011;43152;50.968;18.214;2023-08-06T08:16:35;0.00;;;0.00;;
57307;SDS011;43152;50.968;18.214;2023-08-06T08:26:20;0.00;;;0.00;;
57307;SDS011;43152;50.968;18.214;2023-08-06T08:36:03;0.10;;;0.10;;
57307;SDS011;43152;50.968;18.214;2023-08-06T08:45:51;1.30;;;0.20;;
57307;SDS011;43152;50.968;18.214;2023-08-06T08:55:37;0.50;;;0.10;;
57307;SDS011;43152;50.968;18.214;2023-08-06T09:05:21;0.10;;;0.10;;
57307;SDS011;43152;50.968;18.214;2023-08-06T09:15:09;5.10;;;0.10;;
57307;SDS011;43152;50.968;18.214;2023-08-06T09:25:24;3.30;;;0.30;;
57307;SDS011;43152;50.968;18.214;2023-08-06T09:35:24;0.00;;;0.00;;
57307;SDS011;43152;50.968;18.214;2023-08-06T09:45:17;0.90;;;0.10;;
57307;SDS011;43152;50.968;18.214;2023-08-06T09:55:10;0.00;;;0.00;;
57307;SDS011;43152;50.968;18.214;2023-08-06T10:04:55;0.00;;;0.00;;
57307;SDS011;43152;50.968;18.214;2023-08-06T10:14:40;1.30;;;0.50;;
57307;SDS011;43152;50.968;18.214;2023-08-06T10:35:34;0.10;;;0.10;;
57307;SDS011;43152;50.968;18.214;2023-08-06T10:54:42;0.00;;;0.00;;
57307;SDS011;43152;50.968;18.214;2023-08-06T11:04:30;0.20;;;0.10;;
57307;SDS011;43152;50.968;18.214;2023-08-06T11:14:16;2.70;;;0.30;;
57307;SDS011;43152;50.968;18.214;2023-08-06T11:23:59;0.10;;;0.10;;
57307;SDS011;43152;50.968;18.214;2023-08-06T11:33:47;0.70;;;0.30;;
57307;SDS011;43152;50.968;18.214;2023-08-06T11:43:32;0.80;;;0.30;;
57307;SDS011;43152;50.968;18.214;2023-08-06T11:53:19;1.10;;;0.20;;
57307;SDS011;43152;50.968;18.214;2023-08-06T12:03:05;1.30;;;0.20;;
57307;SDS011;43152;50.968;18.214;2023-08-06T12:12:51;0.10;;;0.10;;
57307;SDS011;43152;50.968;18.214;2023-08-06T12:22:34;0.60;;;0.30;;
57307;SDS011;43152;50.968;18.214;2023-08-06T12:32:30;0.40;;;0.20;;
57307;SDS011;43152;50.968;18.214;2023-08-06T12:42:13;1.60;;;0.40;;
57307;SDS011;43152;50.968;18.214;2023-08-06T12:51:56;0.60;;;0.40;;
57307;SDS011;43152;50.968;18.214;2023-08-06T13:09:07;0.60;;;0.30;;
57307;SDS011;43152;50.968;18.214;2023-08-06T13:18:58;0.60;;;0.40;;
57307;SDS011;43152;50.968;18.214;2023-08-06T13:28:43;1.20;;;0.20;;
57307;SDS011;43152;50.968;18.214;2023-08-06T13:38:26;0.80;;;0.10;;
57307;SDS011;43152;50.968;18.214;2023-08-06T13:48:10;0.00;;;0.00;;
57307;SDS011;43152;50.968;18.214;2023-08-06T13:57:54;2.00;;;0.20;;
57307;SDS011;43152;50.968;18.214;2023-08-06T14:07:37;0.00;;;0.00;;
57307;SDS011;43152;50.968;18.214;2023-08-06T14:17:20;0.80;;;0.20;;
57307;SDS011;43152;50.968;18.214;2023-08-06T14:27:03;1.40;;;0.00;;
57307;SDS011;43152;50.968;18.214;2023-08-06T14:36:47;1.90;;;0.10;;
57307;SDS011;43152;50.968;18.214;2023-08-06T14:46:30;0.40;;;0.20;;
57307;SDS011;43152;50.968;18.214;2023-08-06T14:56:14;0.30;;;0.10;;
57307;SDS011;43152;50.968;18.214;2023-08-06T15:05:57;0.80;;;0.10;;
57307;SDS011;43152;50.968;18.214;2023-08-06T15:15:43;0.90;;;0.30;;
57307;SDS011;43152;50.968;18.214;2023-08-06T15:25:28;0.80;;;0.30;;
57307;SDS011;43152;50.968;18.214;2023-08-06T15:35:12;0.40;;;0.20;;
57307;SDS011;43152;50.968;18.214;2023-08-06T15:44:56;1.70;;;0.70;;
57307;SDS011;43152;50.968;18.214;2023-08-06T15:54:39;0.70;;;0.40;;
57307;SDS011;43152;50.968;18.214;2023-08-06T16:04:23;0.50;;;0.20;;
57307;SDS011;43152;50.968;18.214;2023-08-06T16:14:10;2.30;;;0.60;;
57307;SDS011;43152;50.968;18.214;2023-08-06T16:23:53;0.50;;;0.20;;
57307;SDS011;43152;50.968;18.214;2023-08-06T16:33:35;1.90;;;0.50;;
57307;SDS011;43152;50.968;18.214;2023-08-06T16:43:20;0.70;;;0.30;;
57307;SDS011;43152;50.968;18.214;2023-08-06T16:53:04;0.60;;;0.30;;
57307;SDS011;43152;50.968;18.214;2023-08-06T17:02:49;1.00;;;0.40;;
57307;SDS011;43152;50.968;18.214;2023-08-06T17:12:39;7.60;;;0.40;;
57307;SDS011;43152;50.968;18.214;2023-08-06T17:22:23;0.30;;;0.20;;
57307;SDS011;43152;50.968;18.214;2023-08-06T17:32:05;1.00;;;0.50;;
57307;SDS011;43152;50.968;18.214;2023-08-06T17:41:51;5.30;;;0.70;;
57307;SDS011;43152;50.968;18.214;2023-08-06T17:51:33;2.20;;;0.60;;
57307;SDS011;43152;50.968;18.214;2023-08-06T18:01:15;5.90;;;1.00;;
57307;SDS011;43152;50.968;18.214;2023-08-06T18:08:38;3.10;;;1.20;;
57307;SDS011;43152;50.968;18.214;2023-08-06T18:18:20;1.70;;;0.70;;
57307;SDS011;43152;50.968;18.214;2023-08-06T18:28:04;0.70;;;0.50;;
57307;SDS011;43152;50.968;18.214;2023-08-06T18:37:50;3.00;;;1.10;;
57307;SDS011;43152;50.968;18.214;2023-08-06T18:47:34;4.40;;;1.50;;
57307;SDS011;43152;50.968;18.214;2023-08-06T18:57:17;2.00;;;0.90;;
57307;SDS011;43152;50.968;18.214;2023-08-06T19:07:02;2.50;;;0.90;;
57307;SDS011;43152;50.968;18.214;2023-08-06T19:16:45;1.00;;;0.50;;
57307;SDS011;43152;50.968;18.214;2023-08-06T19:26:28;10.50;;;0.60;;
57307;SDS011;43152;50.968;18.214;2023-08-06T19:36:12;2.40;;;0.90;;
57307;SDS011;43152;50.968;18.214;2023-08-06T19:45:56;3.90;;;1.00;;
57307;SDS011;43152;50.968;18.214;2023-08-06T19:55:45;3.30;;;0.90;;
57307;SDS011;43152;50.968;18.214;2023-08-06T20:05:33;2.60;;;0.80;;
57307;SDS011;43152;50.968;18.214;2023-08-06T20:15:15;3.50;;;1.10;;
57307;SDS011;43152;50.968;18.214;2023-08-06T20:25:00;2.60;;;0.70;;
57307;SDS011;43152;50.968;18.214;2023-08-06T20:34:42;2.10;;;0.90;;
57307;SDS011;43152;50.968;18.214;2023-08-06T20:44:29;3.60;;;0.60;;
57307;SDS011;43152;50.968;18.214;2023-08-06T20:54:16;2.70;;;1.20;;
57307;SDS011;43152;50.968;18.214;2023-08-06T21:03:58;3.90;;;1.50;;
57307;SDS011;43152;50.968;18.214;2023-08-06T21:13:41;2.80;;;1.00;;
57307;SDS011;43152;50.968;18.214;2023-08-06T21:23:25;0.30;;;0.30;;
57307;SDS011;43152;50.968;18.214;2023-08-06T21:33:25;3.40;;;0.90;;
57307;SDS011;43152;50.968;18.214;2023-08-06T21:43:12;2.50;;;1.10;;
57307;SDS011;43152;50.968;18.214;2023-08-06T21:52:55;5.30;;;1.10;;
57307;SDS011;43152;50.968;18.214;2023-08-06T22:21:46;3.90;;;1.10;;
57307;SDS011;43152;50.968;18.214;2023-08-06T22:31:29;3.80;;;0.90;;
57307;SDS011;43152;50.968;18.214;2023-08-06T22:41:12;1.20;;;0.40;;
57307;SDS011;43152;50.968;18.214;2023-08-06T22:50:54;2.00;;;0.60;;
57307;SDS011;43152;50.968;18.214;2023-08-06T23:00:37;1.80;;;0.90;;
57307;SDS011;43152;50.968;18.214;2023-08-06T23:10:20;3.80;;;1.10;;
57307;SDS011;43152;50.968;18.214;2023-08-06T23:20:04;0.10;;;0.10;;
57307;SDS011;43152;50.968;18.214;2023-08-06T23:29:49;2.10;;;0.80;;
57307;SDS011;43152;50.968;18.214;2023-08-06T23:39:32;5.80;;;1.00;;
57307;SDS011;43152;50.968;18.214;2023-08-06T23:49:14;9.60;;;1.40;;
57307;SDS011;43152;50.968;18.214;2023-08-06T23:58:58;4.10;;;1.10;;
